createdAt,value
2018-02-15T00:00:51.502Z,27.09
2018-02-15T00:01:52.212Z,27.06
2018-02-15T00:02:51.454Z,26.96
2018-02-15T00:03:51.437Z,26.86
2018-02-15T00:04:51.427Z,26.93
2018-02-15T00:05:51.398Z,26.97
2018-02-15T00:06:51.365Z,26.84
2018-02-15T00:07:51.538Z,26.79
2018-02-15T00:08:51.842Z,26.84
2018-02-15T00:09:51.304Z,26.72
2018-02-15T00:10:51.268Z,26.74
2018-02-15T00:11:51.239Z,26.68
2018-02-15T00:12:51.755Z,26.67
2018-02-15T00:13:51.419Z,26.69
2018-02-15T00:14:51.187Z,26.54
2018-02-15T00:15:51.166Z,26.59
2018-02-15T00:16:51.676Z,26.56
2018-02-15T00:17:51.118Z,26.57
2018-02-15T00:18:51.296Z,26.50
2018-02-15T00:19:51.079Z,26.45
2018-02-15T00:20:51.057Z,26.45
2018-02-15T00:21:51.537Z,26.42
2018-02-15T00:22:51.010Z,26.41
2018-02-15T00:23:51.216Z,26.35
2018-02-15T00:24:50.961Z,26.31
2018-02-15T00:25:50.940Z,26.30
2018-02-15T00:26:50.907Z,26.32
2018-02-15T00:27:51.425Z,26.23
2018-02-15T00:28:51.069Z,26.24
2018-02-15T00:29:50.846Z,26.26
2018-02-15T00:30:50.800Z,26.06
2018-02-15T00:31:51.323Z,26.09
2018-02-15T00:32:50.773Z,26.06
2018-02-15T00:33:50.951Z,26.01
2018-02-15T00:34:50.731Z,25.97
2018-02-15T00:35:50.701Z,25.96
2018-02-15T00:36:51.233Z,25.96
2018-02-15T00:37:50.715Z,25.93
2018-02-15T00:38:51.360Z,25.94
2018-02-15T00:39:50.623Z,25.85
2018-02-15T00:40:50.666Z,25.91
2018-02-15T00:41:50.592Z,25.93
2018-02-15T00:43:51.085Z,25.85
2018-02-15T00:44:50.861Z,25.81
2018-02-15T00:45:51.003Z,25.79
2018-02-15T00:46:50.438Z,25.75
2018-02-15T00:47:50.955Z,25.76
2018-02-15T00:48:50.389Z,25.67
2018-02-15T00:49:50.374Z,25.74
2018-02-15T00:50:51.108Z,25.69
2018-02-15T00:51:50.865Z,25.63
2018-02-15T00:52:50.825Z,25.63
2018-02-15T00:53:50.370Z,25.56
2018-02-15T00:54:50.249Z,25.62
2018-02-15T00:55:50.838Z,25.56
2018-02-15T00:56:50.426Z,25.51
2018-02-15T00:57:50.190Z,25.47
2018-02-15T00:58:50.150Z,25.44
2018-02-15T00:59:50.151Z,25.48
2018-02-15T01:00:50.119Z,25.47
2018-02-15T01:01:50.202Z,25.44
2018-02-15T01:02:50.060Z,25.44
2018-02-15T01:03:50.031Z,25.41
2018-02-15T01:04:50.029Z,25.29
2018-02-15T01:05:49.998Z,25.32
2018-02-15T01:06:50.642Z,25.26
2018-02-15T01:07:49.959Z,25.29
2018-02-15T01:08:49.918Z,25.24
2018-02-15T01:09:49.914Z,25.24
2018-02-15T01:10:49.882Z,25.32
2018-02-15T01:11:49.966Z,25.27
2018-02-15T01:12:49.900Z,25.27
2018-02-15T01:13:49.795Z,25.20
2018-02-15T01:14:49.789Z,25.20
2018-02-15T01:15:49.753Z,25.24
2018-02-15T01:16:49.864Z,25.27
2018-02-15T01:17:49.705Z,25.22
2018-02-15T01:18:49.687Z,25.22
2018-02-15T01:19:49.660Z,25.19
2018-02-15T01:20:49.680Z,25.24
2018-02-15T01:21:49.611Z,25.09
2018-02-15T01:22:49.684Z,25.09
2018-02-15T01:23:49.556Z,25.20
2018-02-15T01:24:49.553Z,25.12
2018-02-15T01:25:49.520Z,25.20
2018-02-15T01:26:50.035Z,25.23
2018-02-15T01:27:49.477Z,25.22
2018-02-15T01:28:49.551Z,25.20
2018-02-15T01:29:49.446Z,25.07
2018-02-15T01:30:50.030Z,25.14
2018-02-15T01:31:49.362Z,25.14
2018-02-15T01:32:49.356Z,25.00
2018-02-15T01:33:49.834Z,24.97
2018-02-15T01:34:49.399Z,25.00
2018-02-15T01:35:49.308Z,24.97
2018-02-15T01:36:49.248Z,25.01
2018-02-15T01:37:49.261Z,25.02
2018-02-15T01:38:49.208Z,25.02
2018-02-15T01:39:49.808Z,25.00
2018-02-15T01:40:49.188Z,24.97
2018-02-15T01:41:49.657Z,24.89
2018-02-15T01:42:49.331Z,24.89
2018-02-15T01:43:49.630Z,24.85
2018-02-15T01:44:49.178Z,24.90
2018-02-15T01:45:49.079Z,24.97
2018-02-15T01:46:49.003Z,24.87
2018-02-15T01:47:48.982Z,24.93
2018-02-15T01:48:48.962Z,24.89
2018-02-15T01:49:49.081Z,24.82
2018-02-15T01:50:48.912Z,24.85
2018-02-15T01:51:49.422Z,24.85
2018-02-15T01:52:48.880Z,24.80
2018-02-15T01:53:48.850Z,24.80
2018-02-15T01:54:48.889Z,24.75
2018-02-15T01:55:49.332Z,24.71
2018-02-15T01:56:48.767Z,24.77
2018-02-15T01:57:48.770Z,24.83
2018-02-15T01:58:48.731Z,24.85
2018-02-15T01:59:49.105Z,24.78
2018-02-15T02:00:48.779Z,24.80
2018-02-15T02:01:48.665Z,24.75
2018-02-15T02:02:49.142Z,24.74
2018-02-15T02:03:48.646Z,24.70
2018-02-15T02:04:48.587Z,24.66
2018-02-15T02:05:48.631Z,24.61
2018-02-15T02:06:48.646Z,24.61
2018-02-15T02:07:48.523Z,24.64
2018-02-15T02:08:49.011Z,24.61
2018-02-15T02:09:48.462Z,24.59
2018-02-15T02:10:48.448Z,24.61
2018-02-15T02:11:48.936Z,24.55
2018-02-15T02:12:48.539Z,24.52
2018-02-15T02:13:48.766Z,24.63
2018-02-15T02:14:48.855Z,24.51
2018-02-15T02:15:48.844Z,24.52
2018-02-15T02:16:48.281Z,24.51
2018-02-15T02:17:48.268Z,24.51
2018-02-15T02:18:48.806Z,24.46
2018-02-15T02:19:48.201Z,24.45
2018-02-15T02:20:48.221Z,24.52
2018-02-15T02:21:48.424Z,24.48
2018-02-15T02:22:48.139Z,24.45
2018-02-15T02:23:48.220Z,24.48
2018-02-15T02:24:48.094Z,24.54
2018-02-15T02:25:48.114Z,24.58
2018-02-15T02:26:48.618Z,24.55
2018-02-15T02:27:48.438Z,24.52
2018-02-15T02:28:48.618Z,24.46
2018-02-15T02:29:48.012Z,24.46
2018-02-15T02:30:48.024Z,24.48
2018-02-15T02:31:47.920Z,24.54
2018-02-15T02:32:48.560Z,24.48
2018-02-15T02:33:48.187Z,24.45
2018-02-15T02:34:47.878Z,24.48
2018-02-15T02:35:48.056Z,24.49
2018-02-15T02:36:48.323Z,24.51
2018-02-15T02:37:47.813Z,24.54
2018-02-15T02:38:47.935Z,24.51
2018-02-15T02:39:48.518Z,24.46
2018-02-15T02:40:47.771Z,24.51
2018-02-15T02:41:48.220Z,24.55
2018-02-15T02:42:47.647Z,24.51
2018-02-15T02:43:47.620Z,24.49
2018-02-15T02:44:47.645Z,24.55
2018-02-15T02:45:47.688Z,24.54
2018-02-15T02:46:47.578Z,24.54
2018-02-15T02:47:48.049Z,24.51
2018-02-15T02:48:48.084Z,24.46
2018-02-15T02:49:48.023Z,24.45
2018-02-15T02:50:47.995Z,24.44
2018-02-15T02:51:48.058Z,24.44
2018-02-15T02:52:47.967Z,24.37
2018-02-15T02:53:47.376Z,24.40
2018-02-15T02:54:47.390Z,24.42
2018-02-15T02:55:47.938Z,24.39
2018-02-15T02:56:47.307Z,24.42
2018-02-15T02:57:47.398Z,24.39
2018-02-15T02:59:47.229Z,24.34
2018-02-15T03:00:47.225Z,24.39
2018-02-15T03:01:47.816Z,24.34
2018-02-15T03:02:47.305Z,24.32
2018-02-15T03:03:47.153Z,24.19
2018-02-15T03:04:47.116Z,24.21
2018-02-15T03:05:47.087Z,24.21
2018-02-15T03:06:47.117Z,24.19
2018-02-15T03:07:47.131Z,24.27
2018-02-15T03:08:47.020Z,24.17
2018-02-15T03:09:47.729Z,24.27
2018-02-15T03:10:47.521Z,24.21
2018-02-15T03:11:46.933Z,24.19
2018-02-15T03:12:46.973Z,24.09
2018-02-15T03:13:47.578Z,24.14
2018-02-15T03:14:47.474Z,24.12
2018-02-15T03:15:46.807Z,24.07
2018-02-15T03:16:47.380Z,24.04
2018-02-15T03:17:46.773Z,24.07
2018-02-15T03:18:46.943Z,24.08
2018-02-15T03:19:46.918Z,24.09
2018-02-15T03:20:46.734Z,23.97
2018-02-15T03:21:46.723Z,24.07
2018-02-15T03:22:46.660Z,24.07
2018-02-15T03:23:47.150Z,23.97
2018-02-15T03:24:47.255Z,24.04
2018-02-15T03:25:46.562Z,23.93
2018-02-15T03:26:46.596Z,23.90
2018-02-15T03:27:46.865Z,23.89
2018-02-15T03:28:46.543Z,23.85
2018-02-15T03:29:46.487Z,23.85
2018-02-15T03:30:46.547Z,23.89
2018-02-15T03:31:46.413Z,23.79
2018-02-15T03:32:46.945Z,23.82
2018-02-15T03:33:46.373Z,23.81
2018-02-15T03:34:46.407Z,23.82
2018-02-15T03:35:46.834Z,23.78
2018-02-15T03:36:46.504Z,23.74
2018-02-15T03:37:46.906Z,23.77
2018-02-15T03:38:46.269Z,23.67
2018-02-15T03:39:46.254Z,23.63
2018-02-15T03:40:46.196Z,23.55
2018-02-15T03:41:46.204Z,23.56
2018-02-15T03:42:46.290Z,23.53
2018-02-15T03:43:46.120Z,23.47
2018-02-15T03:44:46.127Z,23.47
2018-02-15T03:45:46.129Z,23.57
2018-02-15T03:46:46.030Z,23.53
2018-02-15T03:47:46.114Z,23.53
2018-02-15T03:48:45.968Z,23.41
2018-02-15T03:49:45.997Z,23.41
2018-02-15T03:50:45.936Z,23.41
2018-02-15T03:51:45.909Z,23.29
2018-02-15T03:52:45.937Z,23.32
2018-02-15T03:53:45.940Z,23.34
2018-02-15T03:54:45.831Z,23.15
2018-02-15T03:55:45.791Z,23.18
2018-02-15T03:56:45.790Z,23.10
2018-02-15T03:57:45.765Z,23.19
2018-02-15T03:58:45.872Z,23.12
2018-02-15T03:59:45.701Z,23.15
2018-02-15T04:00:45.663Z,23.07
2018-02-15T04:01:45.652Z,23.12
2018-02-15T04:02:45.613Z,23.14
2018-02-15T04:03:45.749Z,23.21
2018-02-15T04:04:45.582Z,23.40
2018-02-15T04:05:45.575Z,23.32
2018-02-15T04:06:45.525Z,23.45
2018-02-15T04:07:45.524Z,23.35
2018-02-15T04:08:45.482Z,23.32
2018-02-15T04:09:45.548Z,23.34
2018-02-15T04:10:45.436Z,23.29
2018-02-15T04:11:45.396Z,23.14
2018-02-15T04:12:45.374Z,23.22
2018-02-15T04:13:45.352Z,23.12
2018-02-15T04:14:45.401Z,23.14
2018-02-15T04:15:45.388Z,23.22
2018-02-15T04:16:45.295Z,23.34
2018-02-15T04:17:45.244Z,23.32
2018-02-15T04:18:45.222Z,23.25
2018-02-15T04:19:45.196Z,23.21
2018-02-15T04:20:45.314Z,23.15
2018-02-15T04:21:45.167Z,23.15
2018-02-15T04:22:45.116Z,22.96
2018-02-15T04:23:45.080Z,22.97
2018-02-15T04:24:45.064Z,22.85
2018-02-15T04:25:45.076Z,22.85
2018-02-15T04:26:45.116Z,22.70
2018-02-15T04:27:45.045Z,22.64
2018-02-15T04:28:44.991Z,22.49
2018-02-15T04:29:44.930Z,22.54
2018-02-15T04:30:44.909Z,22.39
2018-02-15T04:31:44.974Z,22.29
2018-02-15T04:32:44.860Z,22.30
2018-02-15T04:33:44.827Z,22.27
2018-02-15T04:34:44.796Z,22.36
2018-02-15T04:35:44.780Z,22.24
2018-02-15T04:36:44.931Z,22.22
2018-02-15T04:37:44.730Z,22.26
2018-02-15T04:38:44.733Z,22.14
2018-02-15T04:39:44.689Z,22.20
2018-02-15T04:40:44.653Z,22.23
2018-02-15T04:41:44.775Z,22.27
2018-02-15T04:42:44.593Z,22.12
2018-02-15T04:43:44.582Z,22.20
2018-02-15T04:44:44.541Z,22.15
2018-02-15T04:45:44.512Z,22.18
2018-02-15T04:46:44.583Z,22.14
2018-02-15T04:47:44.465Z,22.07
2018-02-15T04:48:44.431Z,22.12
2018-02-15T04:49:44.414Z,22.08
2018-02-15T04:50:44.386Z,22.11
2018-02-15T04:51:44.357Z,22.09
2018-02-15T04:52:44.605Z,22.04
2018-02-15T04:53:44.305Z,22.07
2018-02-15T04:54:44.267Z,22.11
2018-02-15T04:55:44.257Z,22.07
2018-02-15T04:56:44.221Z,22.15
2018-02-15T04:57:44.193Z,22.08
2018-02-15T04:58:44.274Z,22.16
2018-02-15T04:59:44.143Z,22.09
2018-02-15T05:00:44.107Z,22.12
2018-02-15T05:01:44.093Z,22.11
2018-02-15T05:02:44.072Z,22.14
2018-02-15T05:03:44.085Z,22.11
2018-02-15T05:04:44.134Z,22.11
2018-02-15T05:05:43.986Z,22.04
2018-02-15T05:06:44.073Z,22.14
2018-02-15T05:07:43.979Z,22.14
2018-02-15T05:08:43.920Z,22.16
2018-02-15T05:09:43.976Z,22.12
2018-02-15T05:10:43.851Z,22.12
2018-02-15T05:11:43.825Z,22.05
2018-02-15T05:12:43.790Z,21.97
2018-02-15T05:13:43.770Z,22.00
2018-02-15T05:14:43.846Z,21.96
2018-02-15T05:15:43.728Z,21.99
2018-02-15T05:16:43.690Z,21.97
2018-02-15T05:17:43.672Z,21.94
2018-02-15T05:18:43.661Z,21.94
2018-02-15T05:19:43.742Z,21.92
2018-02-15T05:20:43.620Z,21.93
2018-02-15T05:21:43.559Z,21.96
2018-02-15T05:22:43.551Z,21.93
2018-02-15T05:23:43.502Z,21.93
2018-02-15T05:24:43.613Z,21.92
2018-02-15T05:25:43.472Z,21.97
2018-02-15T05:26:43.429Z,21.96
2018-02-15T05:27:43.399Z,21.97
2018-02-15T05:28:43.371Z,22.04
2018-02-15T05:29:43.348Z,21.96
2018-02-15T05:30:43.443Z,21.93
2018-02-15T05:31:43.317Z,21.97
2018-02-15T05:32:43.376Z,21.93
2018-02-15T05:33:43.273Z,21.92
2018-02-15T05:34:43.236Z,21.89
2018-02-15T05:35:43.215Z,21.89
2018-02-15T05:36:43.260Z,21.92
2018-02-15T05:37:43.142Z,21.90
2018-02-15T05:38:43.134Z,21.89
2018-02-15T05:39:43.138Z,21.97
2018-02-15T05:40:43.085Z,21.93
2018-02-15T05:41:43.186Z,21.99
2018-02-15T05:42:43.015Z,21.94
2018-02-15T05:43:42.986Z,21.94
2018-02-15T05:44:42.944Z,22.00
2018-02-15T05:45:42.948Z,21.92
2018-02-15T05:46:42.996Z,21.92
2018-02-15T05:47:42.865Z,21.94
2018-02-15T05:48:42.835Z,21.82
2018-02-15T05:49:42.850Z,21.78
2018-02-15T05:50:42.807Z,21.64
2018-02-15T05:51:42.888Z,21.62
2018-02-15T05:52:42.758Z,21.58
2018-02-15T05:53:42.708Z,21.58
2018-02-15T05:54:42.692Z,21.67
2018-02-15T05:55:42.659Z,21.56
2018-02-15T05:56:42.732Z,21.48
2018-02-15T05:57:42.608Z,21.52
2018-02-15T05:58:42.559Z,21.55
2018-02-15T05:59:42.532Z,21.41
2018-02-15T06:00:42.519Z,21.49
2018-02-15T06:01:42.671Z,21.40
2018-02-15T06:02:42.450Z,21.59
2018-02-15T06:03:42.421Z,21.56
2018-02-15T06:04:42.399Z,21.53
2018-02-15T06:05:42.382Z,21.48
2018-02-15T06:06:42.345Z,21.45
2018-02-15T06:07:42.415Z,21.49
2018-02-15T06:08:42.301Z,21.49
2018-02-15T06:09:42.331Z,21.45
2018-02-15T06:10:42.242Z,21.36
2018-02-15T06:11:42.220Z,21.30
2018-02-15T06:12:42.226Z,21.41
2018-02-15T06:13:42.263Z,21.34
2018-02-15T06:14:42.128Z,21.23
2018-02-15T06:15:42.194Z,21.28
2018-02-15T06:16:42.074Z,21.27
2018-02-15T06:17:42.077Z,21.23
2018-02-15T06:18:42.115Z,21.18
2018-02-15T06:19:41.986Z,21.22
2018-02-15T06:20:42.036Z,21.25
2018-02-15T06:21:41.935Z,21.15
2018-02-15T06:22:41.912Z,21.25
2018-02-15T06:23:42.028Z,21.33
2018-02-15T06:24:41.866Z,21.25
2018-02-15T06:25:41.838Z,21.22
2018-02-15T06:26:41.805Z,21.19
2018-02-15T06:27:41.786Z,21.09
2018-02-15T06:28:41.855Z,21.16
2018-02-15T06:29:41.725Z,21.15
2018-02-15T06:30:41.688Z,21.19
2018-02-15T06:31:41.704Z,21.11
2018-02-15T06:32:41.648Z,21.12
2018-02-15T06:33:41.710Z,21.15
2018-02-15T06:34:41.580Z,21.09
2018-02-15T06:35:41.577Z,21.11
2018-02-15T06:36:41.591Z,21.09
2018-02-15T06:37:41.508Z,21.04
2018-02-15T06:38:41.481Z,21.08
2018-02-15T06:39:41.491Z,21.28
2018-02-15T06:40:41.433Z,21.23
2018-02-15T06:41:41.403Z,21.30
2018-02-15T06:42:41.364Z,21.21
2018-02-15T06:43:41.351Z,21.37
2018-02-15T06:44:41.313Z,21.25
2018-02-15T06:45:41.388Z,21.25
2018-02-15T06:46:41.258Z,21.22
2018-02-15T06:47:41.239Z,21.27
2018-02-15T06:48:41.192Z,21.33
2018-02-15T06:49:41.181Z,21.36
2018-02-15T06:50:41.258Z,21.33
2018-02-15T06:51:41.114Z,21.38
2018-02-15T06:52:41.107Z,21.43
2018-02-15T06:53:41.055Z,21.34
2018-02-15T06:54:41.023Z,21.43
2018-02-15T06:55:41.116Z,21.51
2018-02-15T06:56:40.984Z,21.43
2018-02-15T06:57:40.954Z,21.51
2018-02-15T06:58:40.915Z,21.48
2018-02-15T06:59:40.904Z,21.51
2018-02-15T07:00:40.974Z,21.48
2018-02-15T07:01:40.837Z,21.38
2018-02-15T07:02:40.816Z,21.36
2018-02-15T07:03:40.775Z,21.30
2018-02-15T07:04:40.776Z,21.25
2018-02-15T07:05:40.835Z,21.15
2018-02-15T07:06:40.706Z,21.19
2018-02-15T07:07:40.696Z,21.16
2018-02-15T07:08:40.649Z,21.27
2018-02-15T07:09:40.617Z,21.23
2018-02-15T07:10:40.747Z,21.21
2018-02-15T07:11:40.576Z,21.23
2018-02-15T07:12:40.539Z,21.28
2018-02-15T07:13:40.519Z,21.37
2018-02-15T07:14:40.479Z,21.38
2018-02-15T07:15:40.448Z,21.58
2018-02-15T07:16:40.531Z,21.59
2018-02-15T07:17:40.411Z,21.80
2018-02-15T07:18:40.369Z,22.04
2018-02-15T07:19:40.369Z,22.07
2018-02-15T07:20:40.321Z,22.24
2018-02-15T07:21:40.293Z,22.31
2018-02-15T07:22:40.385Z,22.30
2018-02-15T07:23:40.234Z,22.31
2018-02-15T07:24:40.213Z,22.26
2018-02-15T07:25:40.185Z,22.23
2018-02-15T07:26:40.152Z,22.12
2018-02-15T07:27:40.243Z,22.04
2018-02-15T07:28:40.113Z,22.07
2018-02-15T07:29:40.073Z,22.20
2018-02-15T07:30:40.046Z,22.39
2018-02-15T07:31:40.013Z,22.51
2018-02-15T07:32:40.100Z,22.61
2018-02-15T07:33:39.964Z,22.63
2018-02-15T07:34:39.939Z,22.71
2018-02-15T07:35:39.903Z,22.63
2018-02-15T07:36:39.894Z,22.63
2018-02-15T07:37:39.954Z,22.67
2018-02-15T07:38:39.875Z,22.49
2018-02-15T07:39:39.794Z,22.39
2018-02-15T07:40:39.783Z,22.24
2018-02-15T07:41:39.750Z,22.26
2018-02-15T07:42:39.892Z,22.20
2018-02-15T07:43:39.698Z,22.16
2018-02-15T07:44:39.668Z,21.97
2018-02-15T07:45:39.651Z,21.86
2018-02-15T07:46:39.630Z,21.82
2018-02-15T07:47:39.681Z,21.74
2018-02-15T07:48:39.579Z,21.71
2018-02-15T07:49:39.529Z,21.62
2018-02-15T07:50:39.503Z,21.61
2018-02-15T07:51:39.479Z,21.70
2018-02-15T07:52:39.464Z,21.78
2018-02-15T07:53:39.527Z,21.97
2018-02-15T07:54:39.401Z,21.93
2018-02-15T07:55:39.361Z,21.92
2018-02-15T07:56:39.343Z,21.99
2018-02-15T07:57:39.308Z,21.89
2018-02-15T07:58:39.281Z,21.77
2018-02-15T07:59:39.354Z,21.73
2018-02-15T08:00:39.232Z,21.66
2018-02-15T08:01:39.218Z,21.68
2018-02-15T08:02:39.239Z,21.55
2018-02-15T08:03:39.140Z,21.58
2018-02-15T08:04:39.223Z,21.52
2018-02-15T08:05:39.102Z,21.41
2018-02-15T08:06:39.068Z,21.46
2018-02-15T08:07:39.031Z,21.45
2018-02-15T08:08:39.019Z,21.43
2018-02-15T08:09:39.082Z,21.33
2018-02-15T08:10:38.955Z,21.41
2018-02-15T08:11:38.932Z,21.34
2018-02-15T08:12:38.913Z,21.48
2018-02-15T08:13:38.874Z,21.48
2018-02-15T08:14:38.954Z,21.59
2018-02-15T08:15:38.829Z,21.62
2018-02-15T08:16:38.806Z,21.64
2018-02-15T08:17:38.773Z,21.70
2018-02-15T08:18:38.740Z,21.74
2018-02-15T08:19:38.800Z,21.90
2018-02-15T08:20:38.683Z,21.93
2018-02-15T08:21:38.655Z,22.07
2018-02-15T08:22:38.624Z,22.05
2018-02-15T08:23:38.595Z,22.11
2018-02-15T08:24:38.591Z,22.07
2018-02-15T08:25:38.655Z,22.11
2018-02-15T08:26:38.550Z,22.07
2018-02-15T08:27:38.489Z,21.97
2018-02-15T08:28:38.457Z,22.04
2018-02-15T08:29:38.457Z,22.11
2018-02-15T08:30:38.411Z,22.16
2018-02-15T08:31:38.497Z,22.20
2018-02-15T08:32:38.389Z,22.09
2018-02-15T08:33:38.334Z,22.12
2018-02-15T08:34:38.308Z,22.23
2018-02-15T08:35:38.288Z,22.18
2018-02-15T08:36:38.240Z,22.30
2018-02-15T08:37:38.323Z,22.26
2018-02-15T08:38:38.206Z,22.29
2018-02-15T08:39:38.178Z,22.54
2018-02-15T08:40:38.141Z,22.69
2018-02-15T08:41:38.121Z,22.84
2018-02-15T08:42:38.190Z,23.03
2018-02-15T08:43:38.060Z,22.99
2018-02-15T08:44:38.042Z,23.00
2018-02-15T08:45:38.021Z,23.00
2018-02-15T08:46:37.988Z,23.10
2018-02-15T08:47:38.041Z,23.34
2018-02-15T08:48:37.939Z,23.47
2018-02-15T08:49:37.893Z,23.57
2018-02-15T08:50:37.873Z,23.44
2018-02-15T08:51:37.834Z,23.41
2018-02-15T08:52:37.919Z,23.50
2018-02-15T08:53:37.805Z,23.44
2018-02-15T08:54:37.753Z,23.41
2018-02-15T08:55:37.749Z,23.34
2018-02-15T08:56:37.702Z,23.32
2018-02-15T08:57:37.685Z,23.32
2018-02-15T08:58:37.746Z,23.42
2018-02-15T08:59:37.636Z,23.59
2018-02-15T09:00:37.636Z,23.52
2018-02-15T09:01:37.594Z,23.44
2018-02-15T09:02:37.536Z,23.67
2018-02-15T09:03:37.618Z,23.75
2018-02-15T09:04:37.496Z,23.84
2018-02-15T09:05:37.460Z,23.85
2018-02-15T09:06:37.446Z,23.87
2018-02-15T09:07:37.409Z,23.84
2018-02-15T09:08:37.382Z,23.78
2018-02-15T09:09:37.464Z,23.71
2018-02-15T09:10:37.324Z,23.70
2018-02-15T09:11:37.309Z,23.59
2018-02-15T09:12:37.288Z,23.66
2018-02-15T09:13:37.243Z,23.42
2018-02-15T09:14:37.219Z,23.57
2018-02-15T09:15:37.310Z,23.38
2018-02-15T09:16:37.170Z,23.53
2018-02-15T09:17:37.140Z,23.52
2018-02-15T09:18:37.123Z,23.38
2018-02-15T09:19:37.091Z,23.29
2018-02-15T09:20:37.161Z,23.26
2018-02-15T09:21:37.033Z,23.19
2018-02-15T09:22:37.036Z,23.14
2018-02-15T09:23:36.981Z,23.09
2018-02-15T09:24:36.953Z,23.01
2018-02-15T09:25:37.036Z,22.96
2018-02-15T09:26:36.898Z,22.92
2018-02-15T09:27:36.890Z,22.85
2018-02-15T09:28:36.852Z,22.82
2018-02-15T09:29:36.823Z,22.82
2018-02-15T09:30:36.791Z,22.71
2018-02-15T09:31:36.887Z,22.75
2018-02-15T09:32:36.758Z,22.70
2018-02-15T09:33:36.717Z,22.69
2018-02-15T09:34:36.743Z,22.64
2018-02-15T09:35:36.666Z,22.55
2018-02-15T09:36:36.717Z,22.52
2018-02-15T09:37:36.721Z,22.36
2018-02-15T09:38:36.586Z,22.26
2018-02-15T09:39:36.550Z,22.22
2018-02-15T09:40:36.540Z,22.16
2018-02-15T09:41:36.505Z,22.22
2018-02-15T09:42:36.578Z,22.18
2018-02-15T09:43:36.456Z,22.12
2018-02-15T09:44:36.518Z,22.30
2018-02-15T09:45:36.397Z,22.38
2018-02-15T09:46:36.385Z,22.51
2018-02-15T09:47:36.342Z,22.42
2018-02-15T09:48:36.418Z,22.29
2018-02-15T09:49:36.296Z,22.30
2018-02-15T09:50:36.277Z,22.27
2018-02-15T09:51:36.269Z,22.29
2018-02-15T09:52:36.209Z,22.23
2018-02-15T09:53:36.307Z,22.24
2018-02-15T09:54:36.158Z,22.22
2018-02-15T09:55:36.131Z,22.20
2018-02-15T09:56:36.116Z,22.04
2018-02-15T09:57:36.082Z,22.00
2018-02-15T09:58:36.158Z,21.83
2018-02-15T09:59:36.022Z,21.86
2018-02-15T10:00:36.006Z,21.80
2018-02-15T10:01:36.050Z,21.82
2018-02-15T10:02:35.959Z,21.73
2018-02-15T10:03:36.012Z,21.70
2018-02-15T10:04:35.892Z,21.74
2018-02-15T10:05:35.861Z,21.78
2018-02-15T10:06:35.833Z,21.76
2018-02-15T10:07:35.822Z,21.62
2018-02-15T10:08:35.837Z,21.71
2018-02-15T10:09:35.853Z,21.64
2018-02-15T10:10:35.722Z,21.56
2018-02-15T10:11:35.704Z,21.52
2018-02-15T10:12:35.684Z,21.55
2018-02-15T10:13:35.645Z,21.56
2018-02-15T10:14:35.712Z,21.55
2018-02-15T10:15:35.594Z,21.49
2018-02-15T10:16:35.576Z,21.51
2018-02-15T10:17:35.534Z,21.48
2018-02-15T10:18:35.522Z,21.43
2018-02-15T10:19:35.583Z,21.49
2018-02-15T10:20:35.496Z,21.45
2018-02-15T10:21:35.424Z,21.46
2018-02-15T10:22:35.407Z,21.56
2018-02-15T10:23:35.377Z,21.53
2018-02-15T10:24:35.352Z,21.49
2018-02-15T10:25:35.435Z,21.55
2018-02-15T10:26:35.335Z,21.48
2018-02-15T10:27:35.268Z,21.46
2018-02-15T10:28:35.258Z,21.45
2018-02-15T10:29:35.219Z,21.51
2018-02-15T10:30:35.289Z,21.56
2018-02-15T10:31:35.172Z,21.71
2018-02-15T10:32:35.127Z,21.70
2018-02-15T10:33:35.109Z,21.86
2018-02-15T10:34:35.088Z,22.00
2018-02-15T10:35:35.149Z,22.08
2018-02-15T10:36:35.018Z,22.05
2018-02-15T10:37:35.011Z,22.00
2018-02-15T10:38:34.972Z,22.02
2018-02-15T10:39:34.939Z,21.93
2018-02-15T10:40:34.928Z,21.94
2018-02-15T10:41:34.992Z,21.89
2018-02-15T10:42:34.861Z,21.89
2018-02-15T10:43:34.835Z,21.92
2018-02-15T10:44:34.812Z,21.93
2018-02-15T10:45:34.776Z,21.97
2018-02-15T10:46:34.852Z,21.99
2018-02-15T10:47:34.721Z,21.96
2018-02-15T10:48:34.725Z,21.77
2018-02-15T10:49:34.682Z,21.66
2018-02-15T10:50:34.637Z,21.77
2018-02-15T10:51:34.714Z,21.67
2018-02-15T10:52:34.594Z,21.66
2018-02-15T10:53:34.564Z,21.67
2018-02-15T10:54:34.535Z,21.71
2018-02-15T10:55:34.563Z,21.66
2018-02-15T10:56:34.502Z,21.66
2018-02-15T10:57:34.562Z,21.73
2018-02-15T10:58:34.427Z,21.73
2018-02-15T10:59:34.409Z,21.74
2018-02-15T11:00:34.384Z,21.59
2018-02-15T11:01:34.345Z,21.56
2018-02-15T11:02:34.324Z,21.37
2018-02-15T11:03:34.405Z,21.28
2018-02-15T11:04:34.273Z,21.25
2018-02-15T11:05:34.256Z,21.22
2018-02-15T11:06:34.206Z,21.22
2018-02-15T11:07:34.193Z,21.30
2018-02-15T11:08:34.258Z,21.23
2018-02-15T11:09:34.136Z,21.15
2018-02-15T11:10:34.096Z,21.28
2018-02-15T11:11:34.084Z,21.22
2018-02-15T11:12:34.046Z,21.36
2018-02-15T11:13:34.050Z,21.45
2018-02-15T11:14:34.087Z,21.46
2018-02-15T11:15:33.975Z,21.52
2018-02-15T11:16:33.940Z,21.56
2018-02-15T11:17:33.910Z,21.49
2018-02-15T11:18:33.878Z,21.58
2018-02-15T11:19:33.967Z,21.51
2018-02-15T11:20:33.831Z,21.49
2018-02-15T11:21:33.805Z,21.53
2018-02-15T11:22:33.780Z,21.52
2018-02-15T11:23:33.750Z,21.41
2018-02-15T11:24:33.822Z,21.49
2018-02-15T11:25:33.690Z,21.33
2018-02-15T11:26:33.672Z,21.38
2018-02-15T11:27:33.649Z,21.37
2018-02-15T11:28:33.612Z,21.31
2018-02-15T11:29:33.693Z,21.30
2018-02-15T11:30:33.552Z,21.37
2018-02-15T11:31:33.536Z,21.31
2018-02-15T11:32:33.555Z,21.34
2018-02-15T11:33:33.471Z,21.27
2018-02-15T11:34:33.444Z,21.36
2018-02-15T11:35:33.477Z,21.34
2018-02-15T11:36:33.482Z,21.41
2018-02-15T11:37:33.373Z,21.34
2018-02-15T11:38:33.334Z,21.31
2018-02-15T11:39:33.304Z,21.36
2018-02-15T11:40:33.282Z,21.36
2018-02-15T11:41:33.382Z,21.38
2018-02-15T11:42:33.239Z,21.38
2018-02-15T11:43:33.212Z,21.38
2018-02-15T11:44:33.178Z,21.38
2018-02-15T11:45:33.147Z,21.30
2018-02-15T11:46:33.199Z,21.36
2018-02-15T11:47:33.187Z,21.38
2018-02-15T11:48:33.076Z,21.31
2018-02-15T11:49:33.054Z,21.30
2018-02-15T11:50:33.024Z,21.33
2018-02-15T11:51:32.976Z,21.27
2018-02-15T11:52:32.941Z,21.23
2018-02-15T11:53:33.045Z,21.34
2018-02-15T11:54:33.056Z,21.34
2018-02-15T11:55:32.877Z,21.31
2018-02-15T11:56:33.031Z,21.27
2018-02-15T11:57:32.842Z,21.30
2018-02-15T11:58:32.908Z,21.36
2018-02-15T11:59:32.792Z,21.38
2018-02-15T12:00:32.757Z,21.43
2018-02-15T12:01:32.720Z,21.37
2018-02-15T12:02:32.690Z,21.43
2018-02-15T12:03:32.750Z,21.38
2018-02-15T12:04:32.629Z,21.56
2018-02-15T12:05:32.590Z,21.51
2018-02-15T12:06:32.586Z,21.58
2018-02-15T12:07:32.543Z,21.59
2018-02-15T12:08:32.633Z,21.70
2018-02-15T12:09:32.499Z,21.73
2018-02-15T12:10:34.014Z,21.76
2018-02-15T12:11:32.441Z,21.86
2018-02-15T12:12:32.403Z,21.86
2018-02-15T12:13:32.504Z,21.99
2018-02-15T12:14:32.452Z,22.02
2018-02-15T12:15:32.339Z,22.05
2018-02-15T12:16:32.304Z,22.07
2018-02-15T12:17:32.273Z,22.08
2018-02-15T12:18:32.245Z,22.24
2018-02-15T12:19:32.314Z,22.39
2018-02-15T12:20:32.304Z,22.38
2018-02-15T12:21:32.154Z,22.51
2018-02-15T12:22:32.124Z,22.64
2018-02-15T12:23:32.125Z,22.60
2018-02-15T12:24:32.076Z,22.67
2018-02-15T12:25:32.148Z,22.75
2018-02-15T12:26:32.031Z,22.79
2018-02-15T12:27:32.012Z,22.82
2018-02-15T12:28:31.982Z,22.81
2018-02-15T12:29:31.946Z,22.92
2018-02-15T12:30:32.023Z,23.10
2018-02-15T12:31:31.900Z,23.18
2018-02-15T12:32:31.856Z,23.16
2018-02-15T12:33:31.915Z,23.22
2018-02-15T12:34:31.824Z,23.12
2018-02-15T12:35:31.889Z,23.26
2018-02-15T12:36:31.809Z,23.24
2018-02-15T12:37:31.728Z,23.24
2018-02-15T12:38:31.720Z,23.16
2018-02-15T12:39:31.876Z,23.29
2018-02-15T12:40:31.800Z,23.44
2018-02-15T12:41:31.616Z,23.44
2018-02-15T12:42:31.632Z,23.52
2018-02-15T12:43:31.585Z,23.70
2018-02-15T12:44:31.565Z,24.07
2018-02-15T12:45:31.533Z,24.22
2018-02-15T12:46:31.592Z,24.51
2018-02-15T12:47:31.470Z,24.55
2018-02-15T12:48:31.473Z,24.69
2018-02-15T12:49:31.401Z,24.77
2018-02-15T12:50:31.406Z,24.89
2018-02-15T12:51:31.368Z,25.19
2018-02-15T12:52:31.386Z,25.30
2018-02-15T12:53:31.317Z,25.34
2018-02-15T12:54:31.282Z,25.48